sensor_id;sensor_type;location;lat;lon;timestamp;P1;durP1;ratioP1;P2;durP2;ratioP2
11807;SDS011;5961;42.640;23.380;2023-02-26T00:01:27;11.83;;;5.20;;
11807;SDS011;5961;42.640;23.380;2023-02-26T00:03:55;13.27;;;4.80;;
11807;SDS011;5961;42.640;23.380;2023-02-26T00:06:24;16.77;;;5.97;;
11807;SDS011;5961;42.640;23.380;2023-02-26T00:08:51;15.30;;;4.97;;
11807;SDS011;5961;42.640;23.380;2023-02-26T00:11:18;12.03;;;4.87;;
11807;SDS011;5961;42.640;23.380;2023-02-26T00:13:46;14.43;;;5.40;;
11807;SDS011;5961;42.640;23.380;2023-02-26T00:16:17;18.73;;;6.47;;
11807;SDS011;5961;42.640;23.380;2023-02-26T00:18:52;14.73;;;5.13;;
11807;SDS011;5961;42.640;23.380;2023-02-26T00:21:20;18.30;;;5.50;;
11807;SDS011;5961;42.640;23.380;2023-02-26T00:23:48;15.40;;;5.50;;
11807;SDS011;5961;42.640;23.380;2023-02-26T00:26:15;12.30;;;5.37;;
11807;SDS011;5961;42.640;23.380;2023-02-26T00:28:42;8.90;;;5.23;;
11807;SDS011;5961;42.640;23.380;2023-02-26T00:31:10;13.00;;;5.47;;
11807;SDS011;5961;42.640;23.380;2023-02-26T00:33:37;11.90;;;4.97;;
11807;SDS011;5961;42.640;23.380;2023-02-26T00:36:11;12.53;;;5.37;;
11807;SDS011;5961;42.640;23.380;2023-02-26T00:38:47;20.33;;;6.23;;
11807;SDS011;5961;42.640;23.380;2023-02-26T00:41:22;15.40;;;5.83;;
11807;SDS011;5961;42.640;23.380;2023-02-26T00:43:49;14.60;;;5.23;;
11807;SDS011;5961;42.640;23.380;2023-02-26T00:46:18;13.07;;;4.87;;
11807;SDS011;5961;42.640;23.380;2023-02-26T00:48:52;10.87;;;5.40;;
11807;SDS011;5961;42.640;23.380;2023-02-26T00:51:28;10.50;;;5.20;;
11807;SDS011;5961;42.640;23.380;2023-02-26T00:54:01;10.70;;;5.10;;
11807;SDS011;5961;42.640;23.380;2023-02-26T00:56:30;12.93;;;4.87;;
11807;SDS011;5961;42.640;23.380;2023-02-26T00:58:57;11.37;;;4.90;;
11807;SDS011;5961;42.640;23.380;2023-02-26T01:01:23;12.03;;;4.63;;
11807;SDS011;5961;42.640;23.380;2023-02-26T01:03:50;10.83;;;4.43;;
11807;SDS011;5961;42.640;23.380;2023-02-26T01:06:18;11.23;;;5.23;;
11807;SDS011;5961;42.640;23.380;2023-02-26T01:08:49;12.27;;;4.43;;
11807;SDS011;5961;42.640;23.380;2023-02-26T01:11:20;17.73;;;5.07;;
11807;SDS011;5961;42.640;23.380;2023-02-26T01:13:47;11.13;;;4.50;;
11807;SDS011;5961;42.640;23.380;2023-02-26T01:16:16;13.53;;;5.10;;
11807;SDS011;5961;42.640;23.380;2023-02-26T01:18:47;11.13;;;5.13;;
11807;SDS011;5961;42.640;23.380;2023-02-26T01:21:20;9.40;;;4.50;;
11807;SDS011;5961;42.640;23.380;2023-02-26T01:23:53;10.80;;;4.17;;
11807;SDS011;5961;42.640;23.380;2023-02-26T01:26:21;13.77;;;5.00;;
11807;SDS011;5961;42.640;23.380;2023-02-26T01:28:49;13.53;;;5.37;;
11807;SDS011;5961;42.640;23.380;2023-02-26T01:31:19;12.00;;;4.57;;
11807;SDS011;5961;42.640;23.380;2023-02-26T01:33:58;14.97;;;4.93;;
11807;SDS011;5961;42.640;23.380;2023-02-26T01:36:30;12.07;;;4.73;;
11807;SDS011;5961;42.640;23.380;2023-02-26T01:39:03;11.03;;;4.43;;
11807;SDS011;5961;42.640;23.380;2023-02-26T01:41:35;11.67;;;4.40;;
11807;SDS011;5961;42.640;23.380;2023-02-26T01:44:12;18.13;;;4.73;;
11807;SDS011;5961;42.640;23.380;2023-02-26T01:46:53;14.53;;;5.27;;
11807;SDS011;5961;42.640;23.380;2023-02-26T01:49:29;18.93;;;5.00;;
11807;SDS011;5961;42.640;23.380;2023-02-26T01:51:57;15.57;;;5.50;;
11807;SDS011;5961;42.640;23.380;2023-02-26T01:54:29;13.17;;;4.50;;
11807;SDS011;5961;42.640;23.380;2023-02-26T01:56:58;16.47;;;4.23;;
11807;SDS011;5961;42.640;23.380;2023-02-26T01:59:29;12.73;;;4.23;;
11807;SDS011;5961;42.640;23.380;2023-02-26T02:01:57;15.87;;;4.70;;
11807;SDS011;5961;42.640;23.380;2023-02-26T02:04:27;19.93;;;5.80;;
11807;SDS011;5961;42.640;23.380;2023-02-26T02:06:56;10.23;;;3.90;;
11807;SDS011;5961;42.640;23.380;2023-02-26T02:09:23;10.03;;;4.33;;
11807;SDS011;5961;42.640;23.380;2023-02-26T02:11:55;12.03;;;4.90;;
11807;SDS011;5961;42.640;23.380;2023-02-26T02:14:39;13.77;;;5.13;;
11807;SDS011;5961;42.640;23.380;2023-02-26T02:17:12;9.67;;;4.00;;
11807;SDS011;5961;42.640;23.380;2023-02-26T02:19:53;12.83;;;3.93;;
11807;SDS011;5961;42.640;23.380;2023-02-26T02:22:50;9.27;;;4.80;;
11807;SDS011;5961;42.640;23.380;2023-02-26T02:25:32;13.73;;;4.30;;
11807;SDS011;5961;42.640;23.380;2023-02-26T02:28:23;15.30;;;4.33;;
11807;SDS011;5961;42.640;23.380;2023-02-26T02:33:33;9.90;;;3.97;;
11807;SDS011;5961;42.640;23.380;2023-02-26T02:36:06;12.40;;;3.90;;
11807;SDS011;5961;42.640;23.380;2023-02-26T02:38:40;15.20;;;4.10;;
11807;SDS011;5961;42.640;23.380;2023-02-26T02:41:12;10.90;;;4.73;;
11807;SDS011;5961;42.640;23.380;2023-02-26T02:43:43;13.73;;;4.30;;
11807;SDS011;5961;42.640;23.380;2023-02-26T02:46:13;13.13;;;4.07;;
11807;SDS011;5961;42.640;23.380;2023-02-26T02:48:46;14.03;;;4.13;;
11807;SDS011;5961;42.640;23.380;2023-02-26T02:51:18;18.20;;;4.27;;
11807;SDS011;5961;42.640;23.380;2023-02-26T02:53:51;13.23;;;3.87;;
11807;SDS011;5961;42.640;23.380;2023-02-26T02:56:22;10.47;;;3.83;;
11807;SDS011;5961;42.640;23.380;2023-02-26T02:58:54;12.90;;;4.13;;
11807;SDS011;5961;42.640;23.380;2023-02-26T03:01:39;10.93;;;4.20;;
11807;SDS011;5961;42.640;23.380;2023-02-26T03:04:10;13.87;;;4.53;;
11807;SDS011;5961;42.640;23.380;2023-02-26T03:06:39;15.00;;;4.20;;
11807;SDS011;5961;42.640;23.380;2023-02-26T03:09:07;15.07;;;4.10;;
11807;SDS011;5961;42.640;23.380;2023-02-26T03:11:35;9.20;;;3.80;;
11807;SDS011;5961;42.640;23.380;2023-02-26T03:14:03;6.17;;;4.17;;
11807;SDS011;5961;42.640;23.380;2023-02-26T03:16:44;5.17;;;3.73;;
11807;SDS011;5961;42.640;23.380;2023-02-26T03:19:20;10.43;;;3.83;;
11807;SDS011;5961;42.640;23.380;2023-02-26T03:21:52;10.47;;;3.73;;
11807;SDS011;5961;42.640;23.380;2023-02-26T03:24:25;7.43;;;3.23;;
11807;SDS011;5961;42.640;23.380;2023-02-26T03:26:56;13.00;;;3.73;;
11807;SDS011;5961;42.640;23.380;2023-02-26T03:29:27;7.00;;;3.73;;
11807;SDS011;5961;42.640;23.380;2023-02-26T03:32:01;11.80;;;3.80;;
11807;SDS011;5961;42.640;23.380;2023-02-26T03:34:36;9.23;;;3.50;;
11807;SDS011;5961;42.640;23.380;2023-02-26T03:37:10;9.20;;;4.27;;
11807;SDS011;5961;42.640;23.380;2023-02-26T03:39:43;11.40;;;3.80;;
11807;SDS011;5961;42.640;23.380;2023-02-26T03:42:14;11.27;;;3.60;;
11807;SDS011;5961;42.640;23.380;2023-02-26T03:44:46;7.80;;;3.77;;
11807;SDS011;5961;42.640;23.380;2023-02-26T03:47:17;8.43;;;4.43;;
11807;SDS011;5961;42.640;23.380;2023-02-26T03:49:47;14.37;;;4.07;;
11807;SDS011;5961;42.640;23.380;2023-02-26T03:52:18;10.43;;;4.17;;
11807;SDS011;5961;42.640;23.380;2023-02-26T03:54:49;11.27;;;4.00;;
11807;SDS011;5961;42.640;23.380;2023-02-26T03:57:20;11.47;;;3.60;;
11807;SDS011;5961;42.640;23.380;2023-02-26T03:59:47;13.03;;;4.67;;
11807;SDS011;5961;42.640;23.380;2023-02-26T04:02:15;13.10;;;4.00;;
11807;SDS011;5961;42.640;23.380;2023-02-26T04:04:48;22.77;;;4.47;;
11807;SDS011;5961;42.640;23.380;2023-02-26T04:07:18;8.70;;;3.60;;
11807;SDS011;5961;42.640;23.380;2023-02-26T04:09:47;7.60;;;4.10;;
11807;SDS011;5961;42.640;23.380;2023-02-26T04:12:15;12.10;;;4.30;;
11807;SDS011;5961;42.640;23.380;2023-02-26T04:14:46;10.10;;;3.63;;
11807;SDS011;5961;42.640;23.380;2023-02-26T04:17:13;15.60;;;4.10;;
11807;SDS011;5961;42.640;23.380;2023-02-26T04:19:39;9.00;;;3.77;;
11807;SDS011;5961;42.640;23.380;2023-02-26T04:22:07;13.70;;;4.57;;
11807;SDS011;5961;42.640;23.380;2023-02-26T04:24:34;12.07;;;4.13;;
11807;SDS011;5961;42.640;23.380;2023-02-26T04:27:01;10.73;;;3.70;;
11807;SDS011;5961;42.640;23.380;2023-02-26T04:29:28;12.87;;;3.37;;
11807;SDS011;5961;42.640;23.380;2023-02-26T04:31:54;10.63;;;4.27;;
11807;SDS011;5961;42.640;23.380;2023-02-26T04:34:21;11.63;;;3.83;;
11807;SDS011;5961;42.640;23.380;2023-02-26T04:36:48;13.57;;;4.07;;
11807;SDS011;5961;42.640;23.380;2023-02-26T04:39:16;10.63;;;3.57;;
11807;SDS011;5961;42.640;23.380;2023-02-26T04:41:43;11.27;;;3.27;;
11807;SDS011;5961;42.640;23.380;2023-02-26T04:44:09;8.80;;;3.73;;
11807;SDS011;5961;42.640;23.380;2023-02-26T04:46:36;11.57;;;3.70;;
11807;SDS011;5961;42.640;23.380;2023-02-26T04:49:03;8.67;;;3.70;;
11807;SDS011;5961;42.640;23.380;2023-02-26T04:51:30;7.60;;;4.03;;
11807;SDS011;5961;42.640;23.380;2023-02-26T04:53:56;11.13;;;4.77;;
11807;SDS011;5961;42.640;23.380;2023-02-26T04:56:25;12.23;;;4.57;;
11807;SDS011;5961;42.640;23.380;2023-02-26T04:58:52;10.50;;;3.80;;
11807;SDS011;5961;42.640;23.380;2023-02-26T05:01:19;15.80;;;3.87;;
11807;SDS011;5961;42.640;23.380;2023-02-26T05:03:45;9.70;;;3.33;;
11807;SDS011;5961;42.640;23.380;2023-02-26T05:06:12;11.50;;;3.90;;
11807;SDS011;5961;42.640;23.380;2023-02-26T05:08:39;12.17;;;3.57;;
11807;SDS011;5961;42.640;23.380;2023-02-26T05:11:07;11.70;;;4.30;;
11807;SDS011;5961;42.640;23.380;2023-02-26T05:13:36;13.33;;;3.83;;
11807;SDS011;5961;42.640;23.380;2023-02-26T05:16:03;13.63;;;4.20;;
11807;SDS011;5961;42.640;23.380;2023-02-26T05:18:30;20.63;;;4.40;;
11807;SDS011;5961;42.640;23.380;2023-02-26T05:20:57;13.23;;;4.13;;
11807;SDS011;5961;42.640;23.380;2023-02-26T05:23:25;12.17;;;3.73;;
11807;SDS011;5961;42.640;23.380;2023-02-26T05:25:53;10.40;;;3.93;;
11807;SDS011;5961;42.640;23.380;2023-02-26T05:28:21;15.00;;;4.50;;
11807;SDS011;5961;42.640;23.380;2023-02-26T05:30:49;10.70;;;4.13;;
11807;SDS011;5961;42.640;23.380;2023-02-26T05:33:15;12.57;;;3.90;;
11807;SDS011;5961;42.640;23.380;2023-02-26T05:35:42;10.87;;;4.00;;
11807;SDS011;5961;42.640;23.380;2023-02-26T05:38:09;8.90;;;4.07;;
11807;SDS011;5961;42.640;23.380;2023-02-26T05:40:36;18.40;;;4.47;;
11807;SDS011;5961;42.640;23.380;2023-02-26T05:43:02;12.67;;;4.43;;
11807;SDS011;5961;42.640;23.380;2023-02-26T05:45:29;15.83;;;4.67;;
11807;SDS011;5961;42.640;23.380;2023-02-26T05:47:57;13.77;;;4.80;;
11807;SDS011;5961;42.640;23.380;2023-02-26T05:50:24;10.60;;;4.80;;
11807;SDS011;5961;42.640;23.380;2023-02-26T05:52:51;11.90;;;3.87;;
11807;SDS011;5961;42.640;23.380;2023-02-26T05:55:18;12.93;;;3.50;;
11807;SDS011;5961;42.640;23.380;2023-02-26T05:57:45;13.80;;;4.27;;
11807;SDS011;5961;42.640;23.380;2023-02-26T06:00:12;15.93;;;4.77;;
11807;SDS011;5961;42.640;23.380;2023-02-26T06:02:39;18.30;;;4.33;;
11807;SDS011;5961;42.640;23.380;2023-02-26T06:05:08;13.87;;;4.47;;
11807;SDS011;5961;42.640;23.380;2023-02-26T06:07:35;15.07;;;4.37;;
11807;SDS011;5961;42.640;23.380;2023-02-26T06:10:02;13.87;;;4.13;;
11807;SDS011;5961;42.640;23.380;2023-02-26T06:12:29;16.70;;;4.10;;
11807;SDS011;5961;42.640;23.380;2023-02-26T06:14:56;17.20;;;4.13;;
11807;SDS011;5961;42.640;23.380;2023-02-26T06:17:22;14.87;;;4.33;;
11807;SDS011;5961;42.640;23.380;2023-02-26T06:19:49;16.50;;;4.40;;
11807;SDS011;5961;42.640;23.380;2023-02-26T06:22:17;13.63;;;4.33;;
11807;SDS011;5961;42.640;23.380;2023-02-26T06:24:44;19.87;;;4.60;;
11807;SDS011;5961;42.640;23.380;2023-02-26T06:27:11;10.23;;;3.87;;
11807;SDS011;5961;42.640;23.380;2023-02-26T06:29:38;12.50;;;4.10;;
11807;SDS011;5961;42.640;23.380;2023-02-26T06:32:04;18.90;;;4.67;;
11807;SDS011;5961;42.640;23.380;2023-02-26T06:34:31;18.27;;;5.50;;
11807;SDS011;5961;42.640;23.380;2023-02-26T06:36:58;11.80;;;3.87;;
11807;SDS011;5961;42.640;23.380;2023-02-26T06:39:27;16.33;;;4.37;;
11807;SDS011;5961;42.640;23.380;2023-02-26T06:41:53;15.10;;;4.50;;
11807;SDS011;5961;42.640;23.380;2023-02-26T06:44:20;16.10;;;4.77;;
11807;SDS011;5961;42.640;23.380;2023-02-26T06:46:47;17.93;;;4.17;;
11807;SDS011;5961;42.640;23.380;2023-02-26T06:49:13;15.70;;;4.10;;
11807;SDS011;5961;42.640;23.380;2023-02-26T06:51:40;18.30;;;4.40;;
11807;SDS011;5961;42.640;23.380;2023-02-26T06:54:07;14.77;;;4.70;;
11807;SDS011;5961;42.640;23.380;2023-02-26T06:56:35;9.37;;;3.80;;
11807;SDS011;5961;42.640;23.380;2023-02-26T06:59:02;12.60;;;3.57;;
11807;SDS011;5961;42.640;23.380;2023-02-26T07:01:28;12.40;;;3.70;;
11807;SDS011;5961;42.640;23.380;2023-02-26T07:03:56;11.30;;;4.07;;
11807;SDS011;5961;42.640;23.380;2023-02-26T07:06:23;20.70;;;4.07;;
11807;SDS011;5961;42.640;23.380;2023-02-26T07:08:50;15.70;;;4.23;;
11807;SDS011;5961;42.640;23.380;2023-02-26T07:11:17;16.37;;;4.53;;
11807;SDS011;5961;42.640;23.380;2023-02-26T07:13:45;18.77;;;3.40;;
11807;SDS011;5961;42.640;23.380;2023-02-26T07:16:12;19.43;;;4.57;;
11807;SDS011;5961;42.640;23.380;2023-02-26T07:18:39;14.50;;;4.10;;
11807;SDS011;5961;42.640;23.380;2023-02-26T07:21:05;15.60;;;3.87;;
11807;SDS011;5961;42.640;23.380;2023-02-26T07:23:32;20.00;;;4.07;;
11807;SDS011;5961;42.640;23.380;2023-02-26T07:25:59;12.53;;;3.70;;
11807;SDS011;5961;42.640;23.380;2023-02-26T07:28:26;15.03;;;4.00;;
11807;SDS011;5961;42.640;23.380;2023-02-26T07:30:54;12.20;;;3.73;;
11807;SDS011;5961;42.640;23.380;2023-02-26T07:33:22;15.30;;;3.40;;
11807;SDS011;5961;42.640;23.380;2023-02-26T07:35:49;19.27;;;4.00;;
11807;SDS011;5961;42.640;23.380;2023-02-26T07:38:15;17.30;;;4.00;;
11807;SDS011;5961;42.640;23.380;2023-02-26T07:40:42;18.27;;;3.80;;
11807;SDS011;5961;42.640;23.380;2023-02-26T07:43:09;10.87;;;3.70;;
11807;SDS011;5961;42.640;23.380;2023-02-26T07:45:35;15.03;;;4.23;;
11807;SDS011;5961;42.640;23.380;2023-02-26T07:48:03;13.00;;;3.63;;
11807;SDS011;5961;42.640;23.380;2023-02-26T07:50:30;13.73;;;3.77;;
11807;SDS011;5961;42.640;23.380;2023-02-26T07:52:58;18.63;;;4.63;;
11807;SDS011;5961;42.640;23.380;2023-02-26T07:55:24;13.47;;;3.70;;
11807;SDS011;5961;42.640;23.380;2023-02-26T07:57:51;17.10;;;4.73;;
11807;SDS011;5961;42.640;23.380;2023-02-26T08:00:18;18.83;;;4.10;;
11807;SDS011;5961;42.640;23.380;2023-02-26T08:02:45;15.47;;;3.60;;
11807;SDS011;5961;42.640;23.380;2023-02-26T08:05:13;16.27;;;4.67;;
11807;SDS011;5961;42.640;23.380;2023-02-26T08:07:40;19.97;;;4.07;;
11807;SDS011;5961;42.640;23.380;2023-02-26T08:10:07;16.73;;;3.67;;
11807;SDS011;5961;42.640;23.380;2023-02-26T08:12:35;16.07;;;3.60;;
11807;SDS011;5961;42.640;23.380;2023-02-26T08:15:02;15.83;;;4.70;;
11807;SDS011;5961;42.640;23.380;2023-02-26T08:17:29;13.63;;;3.37;;
11807;SDS011;5961;42.640;23.380;2023-02-26T08:19:56;13.83;;;4.83;;
11807;SDS011;5961;42.640;23.380;2023-02-26T08:22:24;11.07;;;3.20;;
11807;SDS011;5961;42.640;23.380;2023-02-26T08:24:51;12.80;;;4.30;;
11807;SDS011;5961;42.640;23.380;2023-02-26T08:27:17;9.37;;;3.30;;
11807;SDS011;5961;42.640;23.380;2023-02-26T08:29:44;11.17;;;3.53;;
11807;SDS011;5961;42.640;23.380;2023-02-26T08:32:14;27.27;;;4.47;;
11807;SDS011;5961;42.640;23.380;2023-02-26T08:34:41;15.63;;;3.87;;
11807;SDS011;5961;42.640;23.380;2023-02-26T08:37:08;19.90;;;4.20;;
11807;SDS011;5961;42.640;23.380;2023-02-26T08:39:37;17.93;;;3.90;;
11807;SDS011;5961;42.640;23.380;2023-02-26T08:42:04;16.33;;;4.17;;
11807;SDS011;5961;42.640;23.380;2023-02-26T08:44:31;17.07;;;4.97;;
11807;SDS011;5961;42.640;23.380;2023-02-26T08:46:58;18.83;;;5.03;;
11807;SDS011;5961;42.640;23.380;2023-02-26T08:49:25;17.30;;;4.27;;
11807;SDS011;5961;42.640;23.380;2023-02-26T08:51:52;15.83;;;4.00;;
11807;SDS011;5961;42.640;23.380;2023-02-26T08:54:19;19.33;;;4.97;;
11807;SDS011;5961;42.640;23.380;2023-02-26T08:56:47;12.07;;;4.57;;
11807;SDS011;5961;42.640;23.380;2023-02-26T08:59:14;16.50;;;4.23;;
11807;SDS011;5961;42.640;23.380;2023-02-26T09:01:41;14.23;;;4.73;;
11807;SDS011;5961;42.640;23.380;2023-02-26T09:04:07;18.40;;;4.93;;
11807;SDS011;5961;42.640;23.380;2023-02-26T09:06:34;16.10;;;4.00;;
11807;SDS011;5961;42.640;23.380;2023-02-26T09:09:01;15.27;;;4.03;;
11807;SDS011;5961;42.640;23.380;2023-02-26T09:11:28;15.40;;;4.10;;
11807;SDS011;5961;42.640;23.380;2023-02-26T09:13:58;15.40;;;3.97;;
11807;SDS011;5961;42.640;23.380;2023-02-26T09:16:26;11.77;;;3.97;;
11807;SDS011;5961;42.640;23.380;2023-02-26T09:18:53;14.90;;;4.30;;
11807;SDS011;5961;42.640;23.380;2023-02-26T09:21:19;18.33;;;4.00;;
11807;SDS011;5961;42.640;23.380;2023-02-26T09:23:46;14.07;;;4.03;;
11807;SDS011;5961;42.640;23.380;2023-02-26T09:26:13;11.73;;;4.17;;
11807;SDS011;5961;42.640;23.380;2023-02-26T09:28:40;16.47;;;4.07;;
11807;SDS011;5961;42.640;23.380;2023-02-26T09:31:08;12.10;;;4.07;;
11807;SDS011;5961;42.640;23.380;2023-02-26T09:33:35;15.73;;;4.20;;
11807;SDS011;5961;42.640;23.380;2023-02-26T09:36:02;16.17;;;4.30;;
11807;SDS011;5961;42.640;23.380;2023-02-26T09:38:29;17.10;;;4.07;;
11807;SDS011;5961;42.640;23.380;2023-02-26T09:40:57;14.13;;;4.47;;
11807;SDS011;5961;42.640;23.380;2023-02-26T09:46:18;20.57;;;3.77;;
11807;SDS011;5961;42.640;23.380;2023-02-26T09:49:03;13.13;;;4.30;;
11807;SDS011;5961;42.640;23.380;2023-02-26T09:51:49;11.67;;;3.97;;
11807;SDS011;5961;42.640;23.380;2023-02-26T09:54:20;15.03;;;3.97;;
11807;SDS011;5961;42.640;23.380;2023-02-26T09:56:50;14.10;;;3.87;;
11807;SDS011;5961;42.640;23.380;2023-02-26T09:59:18;10.53;;;3.80;;
11807;SDS011;5961;42.640;23.380;2023-02-26T10:01:47;20.20;;;4.37;;
11807;SDS011;5961;42.640;23.380;2023-02-26T10:04:26;13.90;;;3.57;;
11807;SDS011;5961;42.640;23.380;2023-02-26T10:07:09;14.97;;;4.03;;
11807;SDS011;5961;42.640;23.380;2023-02-26T10:09:51;11.27;;;3.63;;
11807;SDS011;5961;42.640;23.380;2023-02-26T10:12:26;11.20;;;4.43;;
11807;SDS011;5961;42.640;23.380;2023-02-26T10:14:56;12.83;;;3.67;;
11807;SDS011;5961;42.640;23.380;2023-02-26T10:17:27;14.43;;;4.60;;
11807;SDS011;5961;42.640;23.380;2023-02-26T10:20:00;16.63;;;3.60;;
11807;SDS011;5961;42.640;23.380;2023-02-26T10:22:31;16.30;;;4.53;;
11807;SDS011;5961;42.640;23.380;2023-02-26T10:25:04;14.10;;;3.30;;
11807;SDS011;5961;42.640;23.380;2023-02-26T10:27:37;12.00;;;3.90;;
11807;SDS011;5961;42.640;23.380;2023-02-26T10:30:15;13.17;;;3.80;;
11807;SDS011;5961;42.640;23.380;2023-02-26T10:32:56;15.13;;;3.67;;
11807;SDS011;5961;42.640;23.380;2023-02-26T10:35:30;14.40;;;4.20;;
11807;SDS011;5961;42.640;23.380;2023-02-26T10:38:03;16.43;;;3.63;;
11807;SDS011;5961;42.640;23.380;2023-02-26T10:40:36;12.83;;;4.20;;
11807;SDS011;5961;42.640;23.380;2023-02-26T10:43:10;12.60;;;3.50;;
11807;SDS011;5961;42.640;23.380;2023-02-26T10:45:43;11.43;;;3.80;;
11807;SDS011;5961;42.640;23.380;2023-02-26T10:48:26;9.73;;;3.67;;
11807;SDS011;5961;42.640;23.380;2023-02-26T10:51:07;12.53;;;3.40;;
11807;SDS011;5961;42.640;23.380;2023-02-26T10:53:37;11.57;;;3.87;;
11807;SDS011;5961;42.640;23.380;2023-02-26T10:56:05;8.77;;;3.27;;
11807;SDS011;5961;42.640;23.380;2023-02-26T10:58:36;10.20;;;3.63;;
11807;SDS011;5961;42.640;23.380;2023-02-26T11:01:04;13.63;;;4.03;;
11807;SDS011;5961;42.640;23.380;2023-02-26T11:03:40;14.13;;;3.33;;
11807;SDS011;5961;42.640;23.380;2023-02-26T11:06:10;13.37;;;3.70;;
11807;SDS011;5961;42.640;23.380;2023-02-26T11:08:43;11.00;;;4.03;;
11807;SDS011;5961;42.640;23.380;2023-02-26T11:11:33;10.27;;;3.30;;
11807;SDS011;5961;42.640;23.380;2023-02-26T11:14:01;14.33;;;5.47;;
11807;SDS011;5961;42.640;23.380;2023-02-26T11:16:27;7.50;;;3.40;;
11807;SDS011;5961;42.640;23.380;2023-02-26T11:18:57;12.67;;;4.07;;
11807;SDS011;5961;42.640;23.380;2023-02-26T11:21:26;13.73;;;3.97;;
11807;SDS011;5961;42.640;23.380;2023-02-26T11:23:57;7.93;;;3.67;;
11807;SDS011;5961;42.640;23.380;2023-02-26T11:26:30;14.33;;;3.70;;
11807;SDS011;5961;42.640;23.380;2023-02-26T11:28:59;9.53;;;3.93;;
11807;SDS011;5961;42.640;23.380;2023-02-26T11:31:26;13.40;;;3.40;;
11807;SDS011;5961;42.640;23.380;2023-02-26T11:33:58;17.50;;;4.60;;
11807;SDS011;5961;42.640;23.380;2023-02-26T11:36:30;16.70;;;3.83;;
11807;SDS011;5961;42.640;23.380;2023-02-26T11:39:00;10.87;;;3.40;;
11807;SDS011;5961;42.640;23.380;2023-02-26T11:41:29;8.20;;;3.33;;
11807;SDS011;5961;42.640;23.380;2023-02-26T11:44:01;15.27;;;4.10;;
11807;SDS011;5961;42.640;23.380;2023-02-26T11:46:33;14.17;;;4.17;;
11807;SDS011;5961;42.640;23.380;2023-02-26T11:49:06;13.37;;;4.23;;
11807;SDS011;5961;42.640;23.380;2023-02-26T11:51:36;14.00;;;3.53;;
11807;SDS011;5961;42.640;23.380;2023-02-26T11:54:18;13.70;;;4.00;;
11807;SDS011;5961;42.640;23.380;2023-02-26T11:56:47;19.07;;;4.83;;
11807;SDS011;5961;42.640;23.380;2023-02-26T11:59:16;12.53;;;4.20;;
11807;SDS011;5961;42.640;23.380;2023-02-26T12:01:44;17.27;;;5.10;;
11807;SDS011;5961;42.640;23.380;2023-02-26T12:04:12;14.03;;;4.20;;
11807;SDS011;5961;42.640;23.380;2023-02-26T12:06:40;12.10;;;5.00;;
11807;SDS011;5961;42.640;23.380;2023-02-26T12:09:08;14.50;;;4.93;;
11807;SDS011;5961;42.640;23.380;2023-02-26T12:11:50;10.67;;;4.90;;
11807;SDS011;5961;42.640;23.380;2023-02-26T12:14:43;15.13;;;4.87;;
11807;SDS011;5961;42.640;23.380;2023-02-26T12:17:29;11.43;;;4.20;;
11807;SDS011;5961;42.640;23.380;2023-02-26T12:20:06;12.03;;;4.53;;
11807;SDS011;5961;42.640;23.380;2023-02-26T12:22:48;16.60;;;4.83;;
11807;SDS011;5961;42.640;23.380;2023-02-26T12:28:22;14.53;;;4.03;;
11807;SDS011;5961;42.640;23.380;2023-02-26T12:31:05;11.73;;;4.70;;
11807;SDS011;5961;42.640;23.380;2023-02-26T12:33:44;17.47;;;5.20;;
11807;SDS011;5961;42.640;23.380;2023-02-26T12:36:27;15.10;;;7.67;;
11807;SDS011;5961;42.640;23.380;2023-02-26T12:39:09;21.87;;;5.27;;
11807;SDS011;5961;42.640;23.380;2023-02-26T12:41:54;23.37;;;4.63;;
11807;SDS011;5961;42.640;23.380;2023-02-26T12:44:34;19.37;;;6.57;;
11807;SDS011;5961;42.640;23.380;2023-02-26T12:47:24;16.77;;;5.30;;
11807;SDS011;5961;42.640;23.380;2023-02-26T12:50:21;18.73;;;4.93;;
11807;SDS011;5961;42.640;23.380;2023-02-26T12:55:57;14.97;;;5.10;;
11807;SDS011;5961;42.640;23.380;2023-02-26T12:58:42;20.63;;;4.77;;
11807;SDS011;5961;42.640;23.380;2023-02-26T13:01:22;12.43;;;5.03;;
11807;SDS011;5961;42.640;23.380;2023-02-26T13:10:18;14.07;;;4.43;;
11807;SDS011;5961;42.640;23.380;2023-02-26T13:12:53;16.83;;;5.03;;
11807;SDS011;5961;42.640;23.380;2023-02-26T13:15:33;17.20;;;6.33;;
11807;SDS011;5961;42.640;23.380;2023-02-26T13:18:11;18.97;;;6.50;;
11807;SDS011;5961;42.640;23.380;2023-02-26T13:20:47;20.10;;;6.60;;
11807;SDS011;5961;42.640;23.380;2023-02-26T13:23:22;17.30;;;6.07;;
11807;SDS011;5961;42.640;23.380;2023-02-26T13:25:55;15.13;;;6.10;;
11807;SDS011;5961;42.640;23.380;2023-02-26T13:28:29;23.23;;;5.40;;
11807;SDS011;5961;42.640;23.380;2023-02-26T13:31:03;12.90;;;4.53;;
11807;SDS011;5961;42.640;23.380;2023-02-26T13:33:33;21.07;;;5.17;;
11807;SDS011;5961;42.640;23.380;2023-02-26T13:36:02;22.83;;;5.00;;
11807;SDS011;5961;42.640;23.380;2023-02-26T13:38:33;20.30;;;4.87;;
11807;SDS011;5961;42.640;23.380;2023-02-26T13:41:11;19.90;;;5.03;;
11807;SDS011;5961;42.640;23.380;2023-02-26T13:43:51;17.57;;;4.73;;
11807;SDS011;5961;42.640;23.380;2023-02-26T13:46:31;19.90;;;5.43;;
11807;SDS011;5961;42.640;23.380;2023-02-26T13:49:07;30.73;;;5.87;;
11807;SDS011;5961;42.640;23.380;2023-02-26T13:51:40;18.27;;;5.07;;
11807;SDS011;5961;42.640;23.380;2023-02-26T13:54:27;22.90;;;5.33;;
11807;SDS011;5961;42.640;23.380;2023-02-26T13:57:07;20.90;;;4.90;;
11807;SDS011;5961;42.640;23.380;2023-02-26T13:59:49;18.67;;;5.23;;
11807;SDS011;5961;42.640;23.380;2023-02-26T14:02:36;16.47;;;4.73;;
11807;SDS011;5961;42.640;23.380;2023-02-26T14:11:36;26.53;;;6.03;;
11807;SDS011;5961;42.640;23.380;2023-02-26T14:14:15;22.93;;;6.30;;
11807;SDS011;5961;42.640;23.380;2023-02-26T14:16:49;21.10;;;5.93;;
11807;SDS011;5961;42.640;23.380;2023-02-26T14:19:20;26.20;;;5.73;;
11807;SDS011;5961;42.640;23.380;2023-02-26T14:21:51;20.47;;;5.43;;
11807;SDS011;5961;42.640;23.380;2023-02-26T14:24:22;25.97;;;5.70;;
11807;SDS011;5961;42.640;23.380;2023-02-26T14:27:06;28.17;;;5.40;;
11807;SDS011;5961;42.640;23.380;2023-02-26T14:29:59;29.60;;;5.93;;
11807;SDS011;5961;42.640;23.380;2023-02-26T14:32:31;27.30;;;5.90;;
11807;SDS011;5961;42.640;23.380;2023-02-26T14:35:01;25.63;;;6.27;;
11807;SDS011;5961;42.640;23.380;2023-02-26T14:37:31;25.87;;;5.70;;
11807;SDS011;5961;42.640;23.380;2023-02-26T14:40:03;24.70;;;5.97;;
11807;SDS011;5961;42.640;23.380;2023-02-26T14:42:34;24.43;;;6.50;;
11807;SDS011;5961;42.640;23.380;2023-02-26T14:45:12;29.03;;;6.80;;
11807;SDS011;5961;42.640;23.380;2023-02-26T14:47:47;21.83;;;6.40;;
11807;SDS011;5961;42.640;23.380;2023-02-26T14:50:15;33.00;;;7.17;;
11807;SDS011;5961;42.640;23.380;2023-02-26T14:55:50;29.37;;;7.17;;
11807;SDS011;5961;42.640;23.380;2023-02-26T14:58:31;29.97;;;7.63;;
11807;SDS011;5961;42.640;23.380;2023-02-26T15:01:10;25.13;;;8.53;;
11807;SDS011;5961;42.640;23.380;2023-02-26T15:03:53;34.33;;;9.20;;
11807;SDS011;5961;42.640;23.380;2023-02-26T15:09:29;27.17;;;7.80;;
11807;SDS011;5961;42.640;23.380;2023-02-26T15:12:08;33.53;;;8.30;;
11807;SDS011;5961;42.640;23.380;2023-02-26T15:14:49;37.40;;;8.40;;
11807;SDS011;5961;42.640;23.380;2023-02-26T15:17:36;34.10;;;7.63;;
11807;SDS011;5961;42.640;23.380;2023-02-26T15:20:16;27.40;;;7.23;;
11807;SDS011;5961;42.640;23.380;2023-02-26T15:22:52;29.40;;;7.77;;
11807;SDS011;5961;42.640;23.380;2023-02-26T15:25:31;31.13;;;6.67;;
11807;SDS011;5961;42.640;23.380;2023-02-26T15:28:01;31.70;;;7.80;;
11807;SDS011;5961;42.640;23.380;2023-02-26T15:30:30;26.53;;;6.73;;